sensor_id;sensor_type;location;lat;lon;timestamp;pressure;altitude;pressure_sealevel;temperature;humidity
61337;BME280;47212;41.326;2.104;2023-08-08T00:03:44;101643.78;;;25.12;68.97
61337;BME280;47212;41.326;2.104;2023-08-08T00:08:57;101644.81;;;25.07;69.20
61337;BME280;47212;41.326;2.104;2023-08-08T00:14:02;101641.41;;;25.02;68.78
61337;BME280;47212;41.326;2.104;2023-08-08T00:19:09;101637.97;;;24.96;68.30
61337;BME280;47212;41.326;2.104;2023-08-08T00:24:14;101634.09;;;24.89;68.14
61337;BME280;47212;41.326;2.104;2023-08-08T00:29:25;101636.59;;;24.82;68.08
61337;BME280;47212;41.326;2.104;2023-08-08T00:34:32;101624.84;;;24.76;68.01
61337;BME280;47212;41.326;2.104;2023-08-08T00:39:38;101625.19;;;24.74;67.79
61337;BME280;47212;41.326;2.104;2023-08-08T00:44:48;101620.28;;;24.71;68.28
61337;BME280;47212;41.326;2.104;2023-08-08T00:49:54;101613.91;;;24.71;68.16
61337;BME280;47212;41.326;2.104;2023-08-08T00:55:00;101614.25;;;24.69;68.08
61337;BME280;47212;41.326;2.104;2023-08-08T01:05:10;101610.97;;;24.67;68.23
61337;BME280;47212;41.326;2.104;2023-08-08T01:10:27;101612.13;;;24.66;68.29
61337;BME280;47212;41.326;2.104;2023-08-08T01:15:37;101596.09;;;24.63;68.29
61337;BME280;47212;41.326;2.104;2023-08-08T01:20:46;101597.59;;;24.61;68.38
61337;BME280;47212;41.326;2.104;2023-08-08T01:26:00;101596.31;;;24.58;67.88
61337;BME280;47212;41.326;2.104;2023-08-08T01:31:08;101594.19;;;24.55;68.37
61337;BME280;47212;41.326;2.104;2023-08-08T01:36:16;101588.16;;;24.53;68.19
61337;BME280;47212;41.326;2.104;2023-08-08T01:41:27;101578.97;;;24.53;68.47
61337;BME280;47212;41.326;2.104;2023-08-08T01:46:33;101588.47;;;24.52;68.62
61337;BME280;47212;41.326;2.104;2023-08-08T01:51:41;101577.19;;;24.48;68.48
61337;BME280;47212;41.326;2.104;2023-08-08T01:56:49;101577.06;;;24.44;68.31
61337;BME280;47212;41.326;2.104;2023-08-08T02:02:00;101585.25;;;24.41;68.58
61337;BME280;47212;41.326;2.104;2023-08-08T02:07:14;101580.38;;;24.38;68.96
61337;BME280;47212;41.326;2.104;2023-08-08T02:12:21;101581.53;;;24.37;69.15
61337;BME280;47212;41.326;2.104;2023-08-08T02:17:27;101569.56;;;24.36;68.73
61337;BME280;47212;41.326;2.104;2023-08-08T02:22:39;101565.97;;;24.36;68.82
61337;BME280;47212;41.326;2.104;2023-08-08T02:27:47;101564.81;;;24.37;69.06
61337;BME280;47212;41.326;2.104;2023-08-08T02:32:58;101557.63;;;24.36;69.27
61337;BME280;47212;41.326;2.104;2023-08-08T02:38:10;101554.84;;;24.36;69.22
61337;BME280;47212;41.326;2.104;2023-08-08T02:43:16;101557.16;;;24.34;68.92
61337;BME280;47212;41.326;2.104;2023-08-08T02:48:35;101549.47;;;24.31;68.91
61337;BME280;47212;41.326;2.104;2023-08-08T02:53:45;101540.66;;;24.29;68.83
61337;BME280;47212;41.326;2.104;2023-08-08T02:58:50;101539.28;;;24.26;69.23
61337;BME280;47212;41.326;2.104;2023-08-08T03:03:55;101535.88;;;24.21;69.14
61337;BME280;47212;41.326;2.104;2023-08-08T03:09:00;101538.53;;;24.17;69.16
61337;BME280;47212;41.326;2.104;2023-08-08T03:14:07;101529.56;;;24.11;69.69
61337;BME280;47212;41.326;2.104;2023-08-08T03:19:13;101539.72;;;24.07;69.97
61337;BME280;47212;41.326;2.104;2023-08-08T03:24:20;101534.81;;;24.04;69.79
61337;BME280;47212;41.326;2.104;2023-08-08T03:29:28;101532.22;;;23.99;69.99
61337;BME280;47212;41.326;2.104;2023-08-08T03:34:34;101533.72;;;23.97;70.13
61337;BME280;47212;41.326;2.104;2023-08-08T03:39:41;101533.56;;;23.93;70.46
61337;BME280;47212;41.326;2.104;2023-08-08T03:44:45;101525.06;;;23.90;70.21
61337;BME280;47212;41.326;2.104;2023-08-08T03:49:55;101522.16;;;23.86;70.31
61337;BME280;47212;41.326;2.104;2023-08-08T03:55:03;101528.38;;;23.83;70.54
61337;BME280;47212;41.326;2.104;2023-08-08T04:05:56;101523.00;;;23.78;70.81
61337;BME280;47212;41.326;2.104;2023-08-08T04:11:03;101521.38;;;23.77;71.08
61337;BME280;47212;41.326;2.104;2023-08-08T04:16:10;101524.81;;;23.74;71.08
61337;BME280;47212;41.326;2.104;2023-08-08T04:21:17;101527.09;;;23.72;70.99
61337;BME280;47212;41.326;2.104;2023-08-08T04:26:22;101528.25;;;23.71;71.26
61337;BME280;47212;41.326;2.104;2023-08-08T04:31:30;101522.22;;;23.69;71.52
61337;BME280;47212;41.326;2.104;2023-08-08T04:36:34;101536.09;;;23.69;71.57
61337;BME280;47212;41.326;2.104;2023-08-08T04:41:41;101535.13;;;23.65;71.49
61337;BME280;47212;41.326;2.104;2023-08-08T04:46:46;101543.31;;;23.61;71.23
61337;BME280;47212;41.326;2.104;2023-08-08T04:51:50;101550.34;;;23.59;71.65
61337;BME280;47212;41.326;2.104;2023-08-08T04:56:54;101545.94;;;23.58;71.56
61337;BME280;47212;41.326;2.104;2023-08-08T05:01:59;101541.53;;;23.57;71.82
61337;BME280;47212;41.326;2.104;2023-08-08T05:07:07;101551.03;;;23.56;71.72
61337;BME280;47212;41.326;2.104;2023-08-08T05:12:15;101557.72;;;23.55;71.72
61337;BME280;47212;41.326;2.104;2023-08-08T05:17:18;101550.50;;;23.54;72.07
61337;BME280;47212;41.326;2.104;2023-08-08T05:22:22;101558.84;;;23.54;71.71
61337;BME280;47212;41.326;2.104;2023-08-08T05:27:24;101551.03;;;23.56;71.83
61337;BME280;47212;41.326;2.104;2023-08-08T05:32:28;101551.50;;;23.58;71.51
61337;BME280;47212;41.326;2.104;2023-08-08T05:37:32;101563.59;;;23.62;71.64
61337;BME280;47212;41.326;2.104;2023-08-08T05:42:38;101555.09;;;23.67;71.80
61337;BME280;47212;41.326;2.104;2023-08-08T05:47:41;101556.19;;;23.74;71.58
61337;BME280;47212;41.326;2.104;2023-08-08T05:52:44;101566.31;;;23.79;71.30
61337;BME280;47212;41.326;2.104;2023-08-08T05:57:48;101568.44;;;23.82;71.33
61337;BME280;47212;41.326;2.104;2023-08-08T06:02:52;101570.06;;;23.83;70.89
61337;BME280;47212;41.326;2.104;2023-08-08T06:07:55;101571.38;;;23.86;71.02
61337;BME280;47212;41.326;2.104;2023-08-08T06:12:59;101575.44;;;23.88;71.10
61337;BME280;47212;41.326;2.104;2023-08-08T06:18:04;101581.16;;;23.92;70.89
61337;BME280;47212;41.326;2.104;2023-08-08T06:23:09;101591.78;;;23.98;71.20
61337;BME280;47212;41.326;2.104;2023-08-08T06:28:20;101585.22;;;24.03;70.71
61337;BME280;47212;41.326;2.104;2023-08-08T06:33:26;101588.28;;;24.10;70.41
61337;BME280;47212;41.326;2.104;2023-08-08T06:38:32;101587.28;;;24.14;70.27
61337;BME280;47212;41.326;2.104;2023-08-08T06:43:38;101591.03;;;24.27;70.44
61337;BME280;47212;41.326;2.104;2023-08-08T06:49:01;101590.34;;;24.39;70.34
61337;BME280;47212;41.326;2.104;2023-08-08T06:54:08;101588.34;;;24.48;70.17
61337;BME280;47212;41.326;2.104;2023-08-08T06:59:16;101599.22;;;24.62;69.47
61337;BME280;47212;41.326;2.104;2023-08-08T07:04:21;101597.06;;;24.67;69.88
61337;BME280;47212;41.326;2.104;2023-08-08T07:09:27;101607.00;;;24.77;69.91
61337;BME280;47212;41.326;2.104;2023-08-08T07:14:31;101606.06;;;24.94;69.40
61337;BME280;47212;41.326;2.104;2023-08-08T07:19:36;101605.00;;;25.07;69.15
61337;BME280;47212;41.326;2.104;2023-08-08T07:24:40;101609.84;;;25.19;69.00
61337;BME280;47212;41.326;2.104;2023-08-08T07:29:45;101614.09;;;25.58;68.67
61337;BME280;47212;41.326;2.104;2023-08-08T07:34:49;101606.50;;;25.79;68.23
61337;BME280;47212;41.326;2.104;2023-08-08T07:39:51;101612.44;;;26.23;67.78
61337;BME280;47212;41.326;2.104;2023-08-08T07:44:56;101598.75;;;26.42;67.66
61337;BME280;47212;41.326;2.104;2023-08-08T07:50:02;101606.75;;;26.56;67.90
61337;BME280;47212;41.326;2.104;2023-08-08T07:55:09;101612.91;;;26.61;68.21
61337;BME280;47212;41.326;2.104;2023-08-08T08:00:14;101610.72;;;26.67;67.89
61337;BME280;47212;41.326;2.104;2023-08-08T08:05:21;101613.84;;;26.53;68.18
61337;BME280;47212;41.326;2.104;2023-08-08T08:10:26;101624.09;;;26.49;68.23
61337;BME280;47212;41.326;2.104;2023-08-08T08:15:33;101614.66;;;26.66;68.67
61337;BME280;47212;41.326;2.104;2023-08-08T08:20:39;101615.38;;;26.63;68.65
61337;BME280;47212;41.326;2.104;2023-08-08T08:25:44;101624.31;;;26.69;68.43
61337;BME280;47212;41.326;2.104;2023-08-08T08:30:48;101620.25;;;26.90;67.96
61337;BME280;47212;41.326;2.104;2023-08-08T08:35:53;101625.72;;;26.99;68.10
61337;BME280;47212;41.326;2.104;2023-08-08T08:41:03;101618.72;;;27.05;67.71
61337;BME280;47212;41.326;2.104;2023-08-08T08:46:06;101622.56;;;27.41;66.85
61337;BME280;47212;41.326;2.104;2023-08-08T08:51:14;101626.56;;;27.68;65.87
61337;BME280;47212;41.326;2.104;2023-08-08T08:56:20;101636.28;;;27.46;66.34
61337;BME280;47212;41.326;2.104;2023-08-08T09:01:26;101645.94;;;27.20;67.19
61337;BME280;47212;41.326;2.104;2023-08-08T09:06:31;101651.09;;;26.94;68.11
61337;BME280;47212;41.326;2.104;2023-08-08T09:11:35;101647.59;;;26.73;68.85
61337;BME280;47212;41.326;2.104;2023-08-08T09:16:45;101654.34;;;26.59;70.32
61337;BME280;47212;41.326;2.104;2023-08-08T09:21:51;101650.50;;;26.64;70.82
61337;BME280;47212;41.326;2.104;2023-08-08T09:26:56;101655.75;;;26.90;70.02
61337;BME280;47212;41.326;2.104;2023-08-08T09:32:06;101650.16;;;27.02;70.38
61337;BME280;47212;41.326;2.104;2023-08-08T09:37:11;101640.47;;;26.87;70.08
61337;BME280;47212;41.326;2.104;2023-08-08T09:42:13;101648.88;;;26.75;70.83
61337;BME280;47212;41.326;2.104;2023-08-08T09:47:21;101664.13;;;26.65;71.33
61337;BME280;47212;41.326;2.104;2023-08-08T09:52:30;101655.75;;;26.65;70.59
61337;BME280;47212;41.326;2.104;2023-08-08T09:57:33;101649.09;;;26.70;69.92
61337;BME280;47212;41.326;2.104;2023-08-08T10:02:37;101652.22;;;26.81;69.16
61337;BME280;47212;41.326;2.104;2023-08-08T10:07:41;101662.25;;;26.82;69.24
61337;BME280;47212;41.326;2.104;2023-08-08T10:12:46;101662.72;;;26.84;68.88
61337;BME280;47212;41.326;2.104;2023-08-08T10:17:53;101657.03;;;26.92;68.83
61337;BME280;47212;41.326;2.104;2023-08-08T10:23:03;101660.19;;;27.03;68.67
61337;BME280;47212;41.326;2.104;2023-08-08T10:28:12;101652.69;;;27.19;68.46
61337;BME280;47212;41.326;2.104;2023-08-08T10:33:25;101657.09;;;27.33;68.75
61337;BME280;47212;41.326;2.104;2023-08-08T10:38:51;101658.28;;;27.19;69.66
61337;BME280;47212;41.326;2.104;2023-08-08T10:43:59;101664.38;;;27.09;69.60
61337;BME280;47212;41.326;2.104;2023-08-08T10:49:05;101648.75;;;26.84;69.86
61337;BME280;47212;41.326;2.104;2023-08-08T10:54:22;101645.47;;;26.82;71.06
61337;BME280;47212;41.326;2.104;2023-08-08T10:59:51;101647.13;;;27.07;70.44
61337;BME280;47212;41.326;2.104;2023-08-08T11:04:55;101646.44;;;27.10;69.81
61337;BME280;47212;41.326;2.104;2023-08-08T11:10:01;101640.34;;;27.20;69.70
61337;BME280;47212;41.326;2.104;2023-08-08T11:15:04;101635.56;;;27.21;69.58
61337;BME280;47212;41.326;2.104;2023-08-08T11:20:13;101634.88;;;27.52;69.37
61337;BME280;47212;41.326;2.104;2023-08-08T11:25:29;101627.59;;;27.75;68.99
61337;BME280;47212;41.326;2.104;2023-08-08T11:30:36;101621.56;;;27.61;68.62
61337;BME280;47212;41.326;2.104;2023-08-08T11:35:44;101618.41;;;27.35;69.15
61337;BME280;47212;41.326;2.104;2023-08-08T11:40:50;101615.97;;;27.33;69.90
61337;BME280;47212;41.326;2.104;2023-08-08T11:46:02;101607.94;;;27.32;69.85
61337;BME280;47212;41.326;2.104;2023-08-08T11:51:07;101596.75;;;27.32;69.98
61337;BME280;47212;41.326;2.104;2023-08-08T11:56:12;101580.47;;;27.21;70.23
61337;BME280;47212;41.326;2.104;2023-08-08T12:01:26;101588.75;;;27.18;71.56
61337;BME280;47212;41.326;2.104;2023-08-08T12:06:32;101587.69;;;27.22;71.15
61337;BME280;47212;41.326;2.104;2023-08-08T12:11:36;101581.59;;;27.33;70.30
61337;BME280;47212;41.326;2.104;2023-08-08T12:16:42;101576.50;;;27.50;69.52
61337;BME280;47212;41.326;2.104;2023-08-08T12:21:48;101574.88;;;27.49;69.11
61337;BME280;47212;41.326;2.104;2023-08-08T12:26:52;101570.09;;;27.50;69.58
61337;BME280;47212;41.326;2.104;2023-08-08T12:31:55;101576.13;;;27.64;69.95
61337;BME280;47212;41.326;2.104;2023-08-08T12:36:58;101564.00;;;27.60;69.50
61337;BME280;47212;41.326;2.104;2023-08-08T12:42:10;101567.28;;;27.62;70.46
61337;BME280;47212;41.326;2.104;2023-08-08T12:47:18;101562.59;;;27.66;69.04
61337;BME280;47212;41.326;2.104;2023-08-08T12:52:29;101562.31;;;27.71;68.36
61337;BME280;47212;41.326;2.104;2023-08-08T12:57:33;101551.97;;;27.59;68.38
61337;BME280;47212;41.326;2.104;2023-08-08T13:02:44;101570.53;;;27.64;68.33
61337;BME280;47212;41.326;2.104;2023-08-08T13:07:50;101554.22;;;27.54;68.08
61337;BME280;47212;41.326;2.104;2023-08-08T13:13:07;101542.59;;;27.52;68.82
61337;BME280;47212;41.326;2.104;2023-08-08T13:18:16;101540.16;;;27.50;69.12
61337;BME280;47212;41.326;2.104;2023-08-08T13:23:20;101541.22;;;27.46;68.43
61337;BME280;47212;41.326;2.104;2023-08-08T13:28:24;101540.78;;;27.44;69.40
61337;BME280;47212;41.326;2.104;2023-08-08T13:33:26;101532.66;;;27.54;68.35
61337;BME280;47212;41.326;2.104;2023-08-08T13:38:34;101539.75;;;27.64;68.67
61337;BME280;47212;41.326;2.104;2023-08-08T13:43:38;101533.44;;;27.67;68.45
61337;BME280;47212;41.326;2.104;2023-08-08T13:48:41;101521.59;;;27.58;68.60
61337;BME280;47212;41.326;2.104;2023-08-08T13:53:45;101520.22;;;27.52;67.66
61337;BME280;47212;41.326;2.104;2023-08-08T13:58:55;101516.31;;;27.41;68.59
61337;BME280;47212;41.326;2.104;2023-08-08T14:04:02;101511.38;;;27.50;68.49
61337;BME280;47212;41.326;2.104;2023-08-08T14:09:05;101498.53;;;27.61;67.40
61337;BME280;47212;41.326;2.104;2023-08-08T14:14:08;101505.84;;;27.66;67.11
61337;BME280;47212;41.326;2.104;2023-08-08T14:19:11;101500.31;;;27.69;68.96
61337;BME280;47212;41.326;2.104;2023-08-08T14:24:14;101493.84;;;27.65;69.69
61337;BME280;47212;41.326;2.104;2023-08-08T14:29:17;101494.06;;;27.60;70.83
61337;BME280;47212;41.326;2.104;2023-08-08T14:34:34;101506.69;;;27.54;71.72
61337;BME280;47212;41.326;2.104;2023-08-08T14:39:39;101506.75;;;27.42;71.42
61337;BME280;47212;41.326;2.104;2023-08-08T14:44:43;101497.28;;;27.31;72.34
61337;BME280;47212;41.326;2.104;2023-08-08T14:49:47;101492.66;;;27.22;73.21
61337;BME280;47212;41.326;2.104;2023-08-08T14:54:52;101478.44;;;27.27;72.99
61337;BME280;47212;41.326;2.104;2023-08-08T14:59:58;101476.91;;;27.30;73.22
61337;BME280;47212;41.326;2.104;2023-08-08T15:05:02;101492.59;;;27.35;72.95
61337;BME280;47212;41.326;2.104;2023-08-08T15:10:06;101488.69;;;27.23;73.69
61337;BME280;47212;41.326;2.104;2023-08-08T15:15:10;101470.50;;;27.29;74.47
61337;BME280;47212;41.326;2.104;2023-08-08T15:20:14;101484.50;;;27.45;73.87
61337;BME280;47212;41.326;2.104;2023-08-08T15:25:18;101487.13;;;27.54;73.00
61337;BME280;47212;41.326;2.104;2023-08-08T15:30:22;101487.78;;;27.63;72.54
61337;BME280;47212;41.326;2.104;2023-08-08T15:35:26;101482.19;;;27.63;72.47
61337;BME280;47212;41.326;2.104;2023-08-08T15:40:31;101475.44;;;27.64;72.54
61337;BME280;47212;41.326;2.104;2023-08-08T15:45:37;101488.41;;;27.72;72.69
61337;BME280;47212;41.326;2.104;2023-08-08T15:50:41;101485.88;;;27.67;72.18
61337;BME280;47212;41.326;2.104;2023-08-08T15:55:45;101472.34;;;27.69;71.39
61337;BME280;47212;41.326;2.104;2023-08-08T16:00:50;101478.53;;;27.75;71.34
61337;BME280;47212;41.326;2.104;2023-08-08T16:05:54;101467.50;;;27.66;71.58
61337;BME280;47212;41.326;2.104;2023-08-08T16:10:57;101469.84;;;27.64;71.49
61337;BME280;47212;41.326;2.104;2023-08-08T16:16:01;101467.50;;;27.66;71.26
61337;BME280;47212;41.326;2.104;2023-08-08T16:21:07;101468.47;;;27.74;70.02
61337;BME280;47212;41.326;2.104;2023-08-08T16:26:10;101476.53;;;27.75;69.30
61337;BME280;47212;41.326;2.104;2023-08-08T16:31:16;101473.00;;;27.78;68.78
61337;BME280;47212;41.326;2.104;2023-08-08T16:36:21;101466.25;;;27.79;69.55
61337;BME280;47212;41.326;2.104;2023-08-08T16:41:23;101466.44;;;27.86;69.89
61337;BME280;47212;41.326;2.104;2023-08-08T16:46:27;101476.72;;;27.82;69.49
61337;BME280;47212;41.326;2.104;2023-08-08T16:51:34;101461.91;;;27.82;69.40
61337;BME280;47212;41.326;2.104;2023-08-08T16:56:37;101474.63;;;27.79;69.76
61337;BME280;47212;41.326;2.104;2023-08-08T17:01:41;101460.00;;;27.70;69.48
61337;BME280;47212;41.326;2.104;2023-08-08T17:06:44;101455.41;;;27.62;69.37
61337;BME280;47212;41.326;2.104;2023-08-08T17:11:48;101464.97;;;27.61;69.42
61337;BME280;47212;41.326;2.104;2023-08-08T17:16:51;101453.78;;;27.61;69.39
61337;BME280;47212;41.326;2.104;2023-08-08T17:21:56;101464.69;;;27.66;69.13
61337;BME280;47212;41.326;2.104;2023-08-08T17:27:04;101468.22;;;27.63;68.12
61337;BME280;47212;41.326;2.104;2023-08-08T17:32:08;101449.13;;;27.53;68.20
61337;BME280;47212;41.326;2.104;2023-08-08T17:37:17;101455.72;;;27.45;68.11
61337;BME280;47212;41.326;2.104;2023-08-08T17:42:25;101452.38;;;27.39;67.05
61337;BME280;47212;41.326;2.104;2023-08-08T17:47:32;101452.03;;;27.41;67.24
61337;BME280;47212;41.326;2.104;2023-08-08T17:52:37;101453.56;;;27.38;66.21
61337;BME280;47212;41.326;2.104;2023-08-08T17:57:41;101452.28;;;27.36;66.65
61337;BME280;47212;41.326;2.104;2023-08-08T18:02:43;101447.41;;;27.33;66.80
61337;BME280;47212;41.326;2.104;2023-08-08T18:07:48;101454.44;;;27.26;67.33
61337;BME280;47212;41.326;2.104;2023-08-08T18:12:54;101450.28;;;27.20;67.61
61337;BME280;47212;41.326;2.104;2023-08-08T18:17:56;101443.59;;;27.09;67.57
61337;BME280;47212;41.326;2.104;2023-08-08T18:23:01;101450.63;;;27.03;67.88
61337;BME280;47212;41.326;2.104;2023-08-08T18:28:07;101452.50;;;26.99;67.91
61337;BME280;47212;41.326;2.104;2023-08-08T18:33:15;101457.28;;;26.99;67.47
61337;BME280;47212;41.326;2.104;2023-08-08T18:38:21;101453.91;;;26.93;67.17
61337;BME280;47212;41.326;2.104;2023-08-08T18:43:24;101467.63;;;26.86;67.01
61337;BME280;47212;41.326;2.104;2023-08-08T18:48:32;101473.00;;;26.79;67.36
61337;BME280;47212;41.326;2.104;2023-08-08T18:53:38;101476.50;;;26.76;67.29
61337;BME280;47212;41.326;2.104;2023-08-08T18:58:47;101477.22;;;26.73;67.50
61337;BME280;47212;41.326;2.104;2023-08-08T19:03:49;101488.63;;;26.67;67.06
61337;BME280;47212;41.326;2.104;2023-08-08T19:08:53;101488.88;;;26.62;67.08
61337;BME280;47212;41.326;2.104;2023-08-08T19:13:57;101484.00;;;26.59;67.28
61337;BME280;47212;41.326;2.104;2023-08-08T19:19:06;101498.69;;;26.56;67.45
61337;BME280;47212;41.326;2.104;2023-08-08T19:24:12;101499.38;;;26.53;67.24
61337;BME280;47212;41.326;2.104;2023-08-08T19:29:16;101494.97;;;26.52;67.52
61337;BME280;47212;41.326;2.104;2023-08-08T19:34:22;101500.09;;;26.50;67.93
61337;BME280;47212;41.326;2.104;2023-08-08T19:39:35;101503.13;;;26.45;68.23
61337;BME280;47212;41.326;2.104;2023-08-08T19:44:39;101510.22;;;26.43;68.53
61337;BME280;47212;41.326;2.104;2023-08-08T19:49:43;101521.38;;;26.43;69.45
61337;BME280;47212;41.326;2.104;2023-08-08T19:54:47;101528.50;;;26.40;69.77
61337;BME280;47212;41.326;2.104;2023-08-08T19:59:50;101521.75;;;26.41;69.82
61337;BME280;47212;41.326;2.104;2023-08-08T20:04:57;101533.16;;;26.36;70.04
61337;BME280;47212;41.326;2.104;2023-08-08T20:10:00;101536.28;;;26.34;70.46
61337;BME280;47212;41.326;2.104;2023-08-08T20:15:09;101533.84;;;26.33;70.86
61337;BME280;47212;41.326;2.104;2023-08-08T20:20:15;101552.56;;;26.32;71.34
61337;BME280;47212;41.326;2.104;2023-08-08T20:25:18;101553.94;;;26.26;71.95
61337;BME280;47212;41.326;2.104;2023-08-08T20:30:22;101555.09;;;26.25;72.37
61337;BME280;47212;41.326;2.104;2023-08-08T20:35:25;101565.44;;;26.25;72.63
61337;BME280;47212;41.326;2.104;2023-08-08T20:40:29;101554.97;;;26.22;73.09
61337;BME280;47212;41.326;2.104;2023-08-08T20:45:33;101543.34;;;26.20;73.24
61337;BME280;47212;41.326;2.104;2023-08-08T20:50:38;101557.66;;;26.18;73.64
61337;BME280;47212;41.326;2.104;2023-08-08T20:55:43;101545.81;;;26.21;73.55
61337;BME280;47212;41.326;2.104;2023-08-08T21:00:47;101561.38;;;26.22;73.64
61337;BME280;47212;41.326;2.104;2023-08-08T21:05:52;101556.50;;;26.19;73.58
61337;BME280;47212;41.326;2.104;2023-08-08T21:10:59;101557.19;;;26.16;73.70
61337;BME280;47212;41.326;2.104;2023-08-08T21:16:02;101569.53;;;26.15;73.52
61337;BME280;47212;41.326;2.104;2023-08-08T21:21:07;101567.44;;;26.12;74.14
61337;BME280;47212;41.326;2.104;2023-08-08T21:26:12;101550.56;;;26.09;73.92
61337;BME280;47212;41.326;2.104;2023-08-08T21:31:19;101558.13;;;26.08;74.25
61337;BME280;47212;41.326;2.104;2023-08-08T21:36:23;101565.69;;;26.08;74.40
61337;BME280;47212;41.326;2.104;2023-08-08T21:41:26;101564.50;;;26.09;74.73
61337;BME280;47212;41.326;2.104;2023-08-08T21:46:32;101562.53;;;26.09;74.78
61337;BME280;47212;41.326;2.104;2023-08-08T21:51:36;101572.88;;;26.09;74.83
61337;BME280;47212;41.326;2.104;2023-08-08T21:56:40;101573.69;;;26.09;74.94
61337;BME280;47212;41.326;2.104;2023-08-08T22:01:46;101558.47;;;26.07;75.00
61337;BME280;47212;41.326;2.104;2023-08-08T22:06:55;101575.22;;;26.07;74.96
61337;BME280;47212;41.326;2.104;2023-08-08T22:12:06;101572.41;;;26.07;74.96
61337;BME280;47212;41.326;2.104;2023-08-08T22:17:15;101564.06;;;26.07;74.96
61337;BME280;47212;41.326;2.104;2023-08-08T22:22:19;101565.69;;;26.08;74.57
61337;BME280;47212;41.326;2.104;2023-08-08T22:27:22;101568.94;;;26.10;74.39
61337;BME280;47212;41.326;2.104;2023-08-08T22:32:31;101568.94;;;26.10;73.57
61337;BME280;47212;41.326;2.104;2023-08-08T22:37:40;101577.31;;;26.10;72.71
61337;BME280;47212;41.326;2.104;2023-08-08T22:42:44;101575.69;;;26.09;72.24
61337;BME280;47212;41.326;2.104;2023-08-08T22:47:48;101564.41;;;26.05;71.63
61337;BME280;47212;41.326;2.104;2023-08-08T22:52:50;101572.31;;;26.03;70.25
61337;BME280;47212;41.326;2.104;2023-08-08T22:57:54;101572.66;;;26.01;69.75
61337;BME280;47212;41.326;2.104;2023-08-08T23:02:58;101567.06;;;26.01;69.03
61337;BME280;47212;41.326;2.104;2023-08-08T23:08:05;101568.19;;;26.00;69.12
61337;BME280;47212;41.326;2.104;2023-08-08T23:13:10;101562.16;;;25.98;68.97
61337;BME280;47212;41.326;2.104;2023-08-08T23:18:15;101562.84;;;25.95;68.58
61337;BME280;47212;41.326;2.104;2023-08-08T23:23:17;101574.00;;;25.95;68.60
61337;BME280;47212;41.326;2.104;2023-08-08T23:28:22;101567.97;;;25.93;68.58
61337;BME280;47212;41.326;2.104;2023-08-08T23:33:30;101576.19;;;25.90;68.30
61337;BME280;47212;41.326;2.104;2023-08-08T23:38:34;101570.50;;;25.86;67.55
61337;BME280;47212;41.326;2.104;2023-08-08T23:43:38;101574.34;;;25.82;67.33
61337;BME280;47212;41.326;2.104;2023-08-08T23:48:44;101575.03;;;25.79;66.80
61337;BME280;47212;41.326;2.104;2023-08-08T23:53:52;101577.34;;;25.77;66.89
61337;BME280;47212;41.326;2.104;2023-08-08T23:58:59;101561.31;;;25.74;66.47
